Terminal Aerodrome Forecast
Issued by NWS

Home | Current Version | Previous Version | Text Only | Print | Product List | Glossary On
Versions: 1 2 3 4 5 6 7 8 9 10 11 12 13 14 15 16 17 18 19 20 21 22 23 24 25 26 27 28 29 30 31 32 33 34
000
FTAK31 PANC 041733
TAFADQ
TAF
PADQ 041733Z 0418/0518 VRB03KT P6SM VCSH BKN070
      TEMPO 0418/0421 -SHRA BKN030
     FM042100 VRB06KT P6SM -SHRA BKN025
     FM050600 08005KT P6SM VCSH BKN050
     FM051200 06018G25KT P6SM BKN025
     FM051600 05026G36KT 4SM -RA BR OVC015=

USA.gov is the U.S. government's official web portal to all federal, state and local government web resources and services.